Time;durP1;ratioP1;P1;durP2;ratioP2;P2;SDS_P1;SDS_P2;PMS_P1;PMS_P2;Temp;Humidity;BMP_temperature;BMP_pressure;BME280_temperature;BME280_humidity;BME280_pressure;Samples;Min_cycle;Max_cycle;Signal;HPM_P1;HPM_P2
2022/10/05 00:01:46;;;;;;;1999.90;999.90;;;7.50;99.90;;;;;;5036527;28;20045;-70
2022/10/05 00:04:15;;;;;;;1999.90;999.90;;;7.40;99.90;;;;;;5034859;28;20504;-69
2022/10/05 00:07:18;;;;;;;1999.90;999.90;;;7.50;99.90;;;;;;5035700;28;20046;-70
2022/10/05 00:09:47;;;;;;;1999.90;999.90;;;7.50;99.90;;;;;;4978095;28;20752;-70
2022/10/05 00:12:15;;;;;;;1999.90;999.90;;;7.50;99.90;;;;;;5028574;28;20065;-70
2022/10/05 00:14:42;;;;;;;1999.90;999.90;;;7.50;99.90;;;;;;5036086;28;20830;-70
2022/10/05 00:17:19;;;;;;;1999.90;999.90;;;7.50;99.90;;;;;;5035691;28;20038;-70
2022/10/05 00:19:50;;;;;;;1999.90;999.90;;;7.50;99.90;;;;;;5036326;28;20037;-69
2022/10/05 00:22:19;;;;;;;1999.90;999.90;;;7.50;99.90;;;;;;5035058;28;20118;-70
2022/10/05 00:24:49;;;;;;;1999.90;999.90;;;7.50;99.90;;;;;;5035725;28;20034;-70
2022/10/05 00:27:21;;;;;;;1999.90;999.90;;;7.60;99.90;;;;;;5035618;28;20042;-70
2022/10/05 00:29:49;;;;;;;1999.90;999.90;;;7.70;99.90;;;;;;5034233;28;20545;-70
2022/10/05 00:32:15;;;;;;;1999.90;999.90;;;7.70;99.90;;;;;;5035028;28;20042;-70
2022/10/05 00:34:42;;;;;;;1999.90;999.90;;;7.50;99.90;;;;;;5036381;28;20038;-70
2022/10/05 00:37:08;;;;;;;1999.90;999.90;;;7.50;99.90;;;;;;5035784;28;20109;-70
2022/10/05 00:39:37;;;;;;;1999.90;999.90;;;7.50;99.90;;;;;;5036050;28;20113;-70
2022/10/05 00:42:14;;;;;;;1999.90;999.90;;;7.40;99.90;;;;;;5036020;28;20128;-70
2022/10/05 00:44:50;;;;;;;1999.90;999.90;;;7.40;99.90;;;;;;5037296;28;20038;-70
2022/10/05 00:47:33;;;;;;;1999.90;999.90;;;7.30;99.90;;;;;;5035641;28;20037;-70
2022/10/05 00:50:14;;;;;;;1999.90;999.90;;;7.30;99.90;;;;;;5034315;28;20026;-70
2022/10/05 00:53:01;;;;;;;1999.90;999.90;;;7.20;99.90;;;;;;5035802;28;20491;-70
2022/10/05 00:56:09;;;;;;;1999.90;999.90;;;7.20;99.90;;;;;;5033820;28;20113;-70
2022/10/05 00:58:53;;;;;;;1999.90;999.90;;;7.10;99.90;;;;;;5035730;28;20496;-70
2022/10/05 01:01:39;;;;;;;1999.90;999.90;;;7.10;99.90;;;;;;5036181;28;20034;-70
2022/10/05 01:04:23;;;;;;;1999.90;999.90;;;7.10;99.90;;;;;;5035364;28;20045;-70
2022/10/05 01:07:12;;;;;;;1999.90;999.90;;;7.10;99.90;;;;;;5035131;28;20038;-70
2022/10/05 01:09:50;;;;;;;1999.90;999.90;;;7.10;99.90;;;;;;5035748;28;20041;-70
2022/10/05 01:12:54;;;;;;;1999.90;999.90;;;7.10;99.90;;;;;;5035596;28;20030;-70
2022/10/05 01:15:23;;;;;;;1999.90;999.90;;;7.00;99.90;;;;;;5012465;28;20034;-70
2022/10/05 01:17:55;;;;;;;1999.90;999.90;;;6.90;99.90;;;;;;5034402;28;20049;-70
2022/10/05 01:20:34;;;;;;;1999.90;999.90;;;6.90;99.90;;;;;;5035551;28;20030;-70
2022/10/05 01:23:34;;;;;;;1999.90;999.90;;;7.00;99.90;;;;;;5035738;28;20026;-70
2022/10/05 01:26:22;;;;;;;1999.90;999.90;;;6.90;99.90;;;;;;5034563;28;20034;-70
2022/10/05 01:29:09;;;;;;;1999.90;999.90;;;6.90;99.90;;;;;;5034506;28;20030;-70
2022/10/05 01:31:58;;;;;;;1999.90;999.90;;;6.90;99.90;;;;;;5035074;28;20038;-70
2022/10/05 01:34:44;;;;;;;1999.90;999.90;;;6.90;99.90;;;;;;5034821;28;20034;-70
2022/10/05 01:37:57;;;;;;;1999.90;999.90;;;6.90;99.90;;;;;;5033019;28;20065;-70
2022/10/05 01:40:36;;;;;;;1999.90;999.90;;;6.70;99.90;;;;;;5015155;28;20060;-70
2022/10/05 01:43:02;;;;;;;1999.90;999.90;;;6.70;99.90;;;;;;5034856;28;20037;-70
2022/10/05 01:45:42;;;;;;;1999.90;999.90;;;6.70;99.90;;;;;;5034592;28;20042;-70
2022/10/05 01:48:18;;;;;;;1999.90;999.90;;;6.70;99.90;;;;;;5034803;28;20555;-70
2022/10/05 01:51:06;;;;;;;1999.90;999.90;;;6.70;99.90;;;;;;5034923;28;20130;-70
2022/10/05 01:54:09;;;;;;;1999.90;999.90;;;6.70;99.90;;;;;;5034793;28;20033;-70
2022/10/05 01:56:51;;;;;;;1999.90;999.90;;;6.60;99.90;;;;;;5034339;28;20037;-70
2022/10/05 01:59:52;;;;;;;1999.90;999.90;;;6.60;99.90;;;;;;5034756;28;20034;-70
2022/10/05 02:02:20;;;;;;;1999.90;999.90;;;6.60;99.90;;;;;;5034731;28;20057;-70
2022/10/05 02:04:52;;;;;;;1999.90;999.90;;;6.70;99.90;;;;;;5034182;28;20065;-70
2022/10/05 02:07:27;;;;;;;1999.90;999.90;;;6.70;99.90;;;;;;5034229;28;20068;-70
2022/10/05 02:09:59;;;;;;;1999.90;999.90;;;6.70;99.90;;;;;;5034683;28;20108;-70
2022/10/05 02:12:30;;;;;;;1999.90;999.90;;;6.60;99.90;;;;;;5032863;28;20472;-70
2022/10/05 02:15:07;;;;;;;1999.90;999.90;;;6.60;99.90;;;;;;5034311;28;20038;-70
2022/10/05 02:17:42;;;;;;;1999.90;999.90;;;6.60;99.90;;;;;;5033650;28;20104;-70
2022/10/05 02:20:11;;;;;;;1999.90;999.90;;;6.50;99.90;;;;;;5034409;28;20116;-69
2022/10/05 02:22:41;;;;;;;1999.90;999.90;;;6.50;99.90;;;;;;5034444;28;20033;-70
2022/10/05 02:25:12;;;;;;;1999.90;999.90;;;6.40;99.90;;;;;;5034110;28;20530;-68
2022/10/05 02:28:01;;;;;;;1999.90;999.90;;;6.40;99.90;;;;;;5034269;28;20030;-68
2022/10/05 02:30:29;;;;;;;1999.90;999.90;;;6.40;99.90;;;;;;5033618;28;20123;-68
2022/10/05 02:33:00;;;;;;;1999.90;999.90;;;6.50;99.90;;;;;;5032686;28;20040;-68
2022/10/05 02:35:26;;;;;;;1999.90;999.90;;;6.40;99.90;;;;;;5034088;28;20438;-68
2022/10/05 02:38:15;;;;;;;1999.90;999.90;;;6.30;99.90;;;;;;5034286;28;20061;-68
2022/10/05 02:41:10;;;;;;;1999.90;999.90;;;6.30;99.90;;;;;;5034681;28;20109;-68
2022/10/05 02:43:42;;;;;;;1999.90;999.90;;;6.40;99.90;;;;;;5034039;28;20041;-68
2022/10/05 02:46:14;;;;;;;1999.90;999.90;;;6.40;99.90;;;;;;5033357;28;20519;-67
2022/10/05 02:49:06;;;;;;;1999.90;999.90;;;6.30;99.90;;;;;;5036075;28;20034;-68
2022/10/05 02:51:56;;;;;;;1999.90;999.90;;;6.20;99.90;;;;;;5037480;28;20403;-68
2022/10/05 02:54:46;;;;;;;1999.90;999.90;;;6.20;99.90;;;;;;5037582;28;20025;-68
2022/10/05 02:57:18;;;;;;;1999.90;999.90;;;6.10;99.90;;;;;;5037372;28;20554;-68
2022/10/05 03:00:10;;;;;;;1999.90;999.90;;;6.10;99.90;;;;;;5037359;28;20034;-68
2022/10/05 03:02:55;;;;;;;1999.90;999.90;;;6.20;99.90;;;;;;5029049;28;20038;-68
2022/10/05 03:05:36;;;;;;;1999.90;999.90;;;6.30;99.90;;;;;;5036762;28;20503;-68
2022/10/05 03:08:08;;;;;;;1999.90;999.90;;;6.30;99.90;;;;;;5036975;28;20038;-68
2022/10/05 03:10:56;;;;;;;1999.90;999.90;;;6.30;99.90;;;;;;5037000;28;20561;-68
2022/10/05 03:13:48;;;;;;;1999.90;999.90;;;6.30;99.90;;;;;;5037381;28;20034;-68
2022/10/05 03:16:37;;;;;;;1999.90;999.90;;;6.30;99.90;;;;;;5035957;28;20073;-68
2022/10/05 03:19:29;;;;;;;1999.90;999.90;;;6.30;99.90;;;;;;5037245;28;20562;-68
2022/10/05 03:22:33;;;;;;;1999.90;999.90;;;6.30;99.90;;;;;;5036633;28;20100;-68
2022/10/05 03:25:36;;;;;;;1999.90;999.90;;;6.30;99.90;;;;;;5029465;28;20034;-68
2022/10/05 03:28:26;;;;;;;1999.90;999.90;;;6.20;99.90;;;;;;5036162;28;20420;-68
2022/10/05 03:31:09;;;;;;;1999.90;999.90;;;6.20;99.90;;;;;;5036916;28;20038;-68
2022/10/05 03:33:55;;;;;;;1999.90;999.90;;;6.10;99.90;;;;;;5036827;28;20034;-71
2022/10/05 03:36:48;;;;;;;1999.90;999.90;;;6.20;99.90;;;;;;5036179;28;20149;-71
2022/10/05 03:39:33;;;;;;;1999.90;999.90;;;6.20;99.90;;;;;;5036475;28;20034;-68
2022/10/05 03:42:27;;;;;;;1999.90;999.90;;;6.20;99.90;;;;;;5036829;28;20033;-68
2022/10/05 03:44:58;;;;;;;1999.90;999.90;;;6.20;99.90;;;;;;5036435;28;20061;-68
2022/10/05 03:47:50;;;;;;;1999.90;999.90;;;6.10;99.90;;;;;;5036278;28;20523;-68
2022/10/05 03:50:40;;;;;;;1999.90;999.90;;;6.20;99.90;;;;;;5036533;28;20531;-68
2022/10/05 03:53:19;;;;;;;1999.90;999.90;;;6.10;99.90;;;;;;5036319;28;20495;-68
2022/10/05 03:56:06;;;;;;;1999.90;999.90;;;6.00;99.90;;;;;;5034718;28;20041;-68
2022/10/05 03:58:48;;;;;;;1999.90;999.90;;;6.00;99.90;;;;;;5036315;28;20492;-68
2022/10/05 04:01:20;;;;;;;1999.90;999.90;;;6.00;99.90;;;;;;5036427;28;20030;-68
2022/10/05 04:03:51;;;;;;;1999.90;999.90;;;6.00;99.90;;;;;;5036140;28;20513;-68
2022/10/05 04:06:25;;;;;;;1999.90;999.90;;;6.00;99.90;;;;;;5036014;28;20034;-68
2022/10/05 04:09:09;;;;;;;1999.90;999.90;;;5.90;99.90;;;;;;5034780;28;20038;-68
2022/10/05 04:11:42;;;;;;;1999.90;999.90;;;5.90;99.90;;;;;;5036459;28;20072;-68
2022/10/05 04:14:17;;;;;;;1999.90;999.90;;;6.00;99.90;;;;;;5035902;28;20041;-68
2022/10/05 04:16:44;;;;;;;1999.90;999.90;;;6.10;99.90;;;;;;5035322;28;20037;-68
2022/10/05 04:19:24;;;;;;;1999.90;999.90;;;6.00;99.90;;;;;;5036051;28;20085;-68
2022/10/05 04:21:59;;;;;;;1999.90;999.90;;;5.90;99.90;;;;;;5036267;28;20042;-68
2022/10/05 04:24:47;;;;;;;1999.90;999.90;;;5.90;99.90;;;;;;5035958;28;20033;-68
2022/10/05 04:27:20;;;;;;;1999.90;999.90;;;5.80;99.90;;;;;;5035914;28;20038;-68
2022/10/05 04:30:01;;;;;;;1999.90;999.90;;;5.80;99.90;;;;;;5035431;28;20030;-68
2022/10/05 04:32:42;;;;;;;1999.90;999.90;;;5.70;99.90;;;;;;5036267;28;20034;-68
2022/10/05 04:35:22;;;;;;;1999.90;999.90;;;5.80;99.90;;;;;;5035652;28;20033;-68
2022/10/05 04:38:22;;;;;;;1999.90;999.90;;;5.90;99.90;;;;;;5034186;28;20034;-68
2022/10/05 04:41:13;;;;;;;1999.90;999.90;;;5.80;99.90;;;;;;5035916;28;20144;-68
2022/10/05 04:43:55;;;;;;;1999.90;999.90;;;5.70;99.90;;;;;;5035823;28;20495;-68
2022/10/05 04:46:41;;;;;;;1999.90;999.90;;;5.60;99.90;;;;;;5035433;28;20045;-68
2022/10/05 04:49:07;;;;;;;1999.90;999.90;;;5.60;99.90;;;;;;5035670;28;20029;-68
2022/10/05 04:51:55;;;;;;;1999.90;999.90;;;5.70;99.90;;;;;;5035348;28;20045;-68
2022/10/05 04:54:38;;;;;;;1999.90;999.90;;;5.70;99.90;;;;;;5035751;28;20041;-68
2022/10/05 04:57:12;;;;;;;241.05;228.95;;;5.80;99.90;;;;;;5035216;28;20038;-68
2022/10/05 04:59:37;;;;;;;230.30;218.95;;;5.80;99.90;;;;;;5035332;28;20037;-68
2022/10/05 05:02:17;;;;;;;182.38;173.75;;;5.80;99.90;;;;;;5035525;28;20092;-68
2022/10/05 05:04:46;;;;;;;166.07;158.07;;;5.80;99.90;;;;;;5035173;28;20137;-68
2022/10/05 05:07:14;;;;;;;165.00;157.18;;;5.70;99.90;;;;;;5035156;28;20409;-68
2022/10/05 05:10:06;;;;;;;168.45;160.27;;;5.80;99.90;;;;;;5034843;28;20030;-68
2022/10/05 05:12:54;;;;;;;166.70;158.73;;;5.80;99.90;;;;;;5033845;28;20491;-68
2022/10/05 05:15:41;;;;;;;174.48;166.27;;;5.90;99.90;;;;;;5035212;28;20054;-68
2022/10/05 05:18:31;;;;;;;158.30;150.82;;;5.80;99.90;;;;;;5034935;28;20038;-68
2022/10/05 05:21:31;;;;;;;165.10;157.30;;;5.70;99.90;;;;;;5033678;28;20116;-68
2022/10/05 05:24:15;;;;;;;170.05;162.00;;;5.80;99.90;;;;;;5035146;28;20056;-68
2022/10/05 05:27:03;;;;;;;169.07;161.05;;;5.80;99.90;;;;;;5034555;28;20090;-68
2022/10/05 05:29:49;;;;;;;179.63;171.07;;;5.80;99.90;;;;;;5034771;28;20141;-68
2022/10/05 05:32:20;;;;;;;171.70;163.48;;;5.90;99.90;;;;;;5034911;28;20034;-68
2022/10/05 05:35:19;;;;;;;169.85;161.75;;;6.00;99.90;;;;;;5034475;28;20030;-68
2022/10/05 05:38:22;;;;;;;165.98;158.05;;;6.00;99.90;;;;;;5034783;28;20496;-68
2022/10/05 05:41:13;;;;;;;166.00;157.93;;;6.10;99.90;;;;;;5034841;28;20030;-68
2022/10/05 05:43:52;;;;;;;201.45;191.90;;;6.20;99.90;;;;;;5034605;28;20054;-68
2022/10/05 05:46:29;;;;;;;203.85;194.23;;;6.30;99.90;;;;;;5032753;28;20041;-68
2022/10/05 05:48:57;;;;;;;221.98;211.30;;;6.30;99.90;;;;;;5034487;28;20060;-68
2022/10/05 05:51:31;;;;;;;163.20;154.57;;;6.30;99.90;;;;;;5034691;28;20044;-68
2022/10/05 05:54:23;;;;;;;179.05;170.38;;;6.40;99.90;;;;;;5034924;28;20026;-68
2022/10/05 05:57:09;;;;;;;190.18;180.95;;;6.40;99.90;;;;;;5031543;28;20125;-68
2022/10/05 05:59:54;;;;;;;98.60;93.68;;;6.40;99.90;;;;;;5034645;28;20034;-70
2022/10/05 06:02:26;;;;;;;77.28;69.35;;;6.50;99.90;;;;;;5035368;28;20044;-70
2022/10/05 06:05:00;;;;;;;167.45;155.05;;;6.50;99.90;;;;;;5034556;28;20161;-68
2022/10/05 06:07:30;;;;;;;68.25;63.97;;;6.60;99.90;;;;;;5034164;28;20563;-69
2022/10/05 06:10:05;;;;;;;51.58;47.88;;;6.60;99.90;;;;;;5034645;28;20439;-68
2022/10/05 06:12:52;;;;;;;56.60;52.70;;;6.60;99.90;;;;;;5034653;28;20514;-69
2022/10/05 06:15:43;;;;;;;65.82;61.38;;;6.70;99.90;;;;;;5034504;28;20407;-69
2022/10/05 06:18:15;;;;;;;84.95;79.55;;;6.80;99.90;;;;;;5033887;28;20045;-69
2022/10/05 06:20:56;;;;;;;95.72;89.78;;;6.80;99.90;;;;;;5034615;28;20535;-69
2022/10/05 06:23:38;;;;;;;107.53;101.05;;;6.90;99.90;;;;;;5037880;28;20514;-69
2022/10/05 06:26:27;;;;;;;100.85;94.65;;;6.90;99.90;;;;;;5035445;28;20038;-69
2022/10/05 06:29:13;;;;;;;89.38;83.78;;;7.00;99.90;;;;;;5038080;28;20025;-69
2022/10/05 06:31:41;;;;;;;71.30;66.50;;;7.00;99.90;;;;;;5038081;28;20042;-69
2022/10/05 06:34:32;;;;;;;63.00;58.67;;;7.10;99.90;;;;;;5037598;28;20030;-69
2022/10/05 06:37:02;;;;;;;49.20;45.72;;;7.10;99.90;;;;;;5037661;28;20116;-69
2022/10/05 06:39:43;;;;;;;47.25;43.65;;;7.20;99.90;;;;;;5037989;28;20026;-69
2022/10/05 06:42:21;;;;;;;45.08;41.78;;;7.30;99.90;;;;;;5037836;28;20057;-70
2022/10/05 06:45:08;;;;;;;46.35;42.92;;;7.30;99.90;;;;;;5037173;28;20060;-70
2022/10/05 06:47:45;;;;;;;43.92;40.38;;;7.30;99.90;;;;;;5037721;28;20034;-70
2022/10/05 06:50:25;;;;;;;43.40;40.30;;;7.40;99.90;;;;;;5036337;28;20065;-70
2022/10/05 06:53:06;;;;;;;42.42;39.28;;;7.40;99.90;;;;;;5037548;28;20038;-70
2022/10/05 06:55:54;;;;;;;41.22;38.13;;;7.50;99.90;;;;;;5035511;28;20026;-70
2022/10/05 06:58:29;;;;;;;38.88;36.10;;;7.60;99.90;;;;;;5037376;28;20096;-69
2022/10/05 07:01:03;;;;;;;36.53;33.80;;;7.70;99.90;;;;;;5029732;28;20034;-70
2022/10/05 07:03:31;;;;;;;36.13;33.55;;;7.80;99.90;;;;;;5037234;28;20037;-70
2022/10/05 07:06:17;;;;;;;33.63;30.77;;;7.90;99.90;;;;;;5036832;28;20490;-70
2022/10/05 07:09:01;;;;;;;33.42;30.58;;;7.90;99.90;;;;;;5037281;28;20197;-70
2022/10/05 07:11:45;;;;;;;33.63;30.65;;;8.00;99.90;;;;;;5037261;28;20034;-71
2022/10/05 07:14:27;;;;;;;34.22;31.60;;;8.10;99.90;;;;;;5038136;28;20030;-70
2022/10/05 07:17:01;;;;;;;32.63;30.08;;;8.10;99.90;;;;;;5036396;28;20034;-69
2022/10/05 07:19:51;;;;;;;35.25;32.70;;;8.30;99.90;;;;;;5037338;28;20026;-70
2022/10/05 07:22:41;;;;;;;40.50;37.50;;;8.30;99.90;;;;;;5037255;28;20130;-70
2022/10/05 07:25:26;;;;;;;41.70;38.45;;;8.40;99.90;;;;;;5036662;28;20030;-71
2022/10/05 07:28:04;;;;;;;1999.90;999.90;;;8.50;99.90;;;;;;5037028;28;20072;-70
2022/10/05 07:30:39;;;;;;;20.65;19.75;;;8.50;99.90;;;;;;5037034;28;20145;-71
2022/10/05 07:33:13;;;;;;;18.42;17.63;;;8.60;99.90;;;;;;5034892;28;20037;-70
2022/10/05 07:38:42;;;;;;;18.95;18.15;;;8.90;99.90;;;;;;5037184;28;20038;-71
2022/10/05 07:41:12;;;;;;;15.63;14.93;;;9.00;99.90;;;;;;5037032;28;20399;-71
2022/10/05 07:44:11;;;;;;;16.63;15.93;;;9.10;99.90;;;;;;5037466;28;20085;-70
2022/10/05 07:46:58;;;;;;;14.63;14.02;;;9.20;99.90;;;;;;5012561;28;20073;-71
2022/10/05 07:49:52;;;;;;;15.05;14.45;;;9.40;99.90;;;;;;5037696;28;20026;-70
2022/10/05 07:52:36;;;;;;;14.57;13.98;;;9.60;99.90;;;;;;5037332;28;20030;-70
2022/10/05 07:55:15;;;;;;;1999.90;999.90;;;9.70;99.90;;;;;;5036497;28;20113;-70
2022/10/05 07:58:27;;;;;;;428.73;393.73;;;9.80;99.90;;;;;;5035828;28;20037;-70
2022/10/05 08:01:01;;;;;;;391.15;366.23;;;10.00;99.90;;;;;;5008046;28;20052;-70
2022/10/05 08:03:52;;;;;;;372.60;346.67;;;10.20;99.90;;;;;;5036287;28;20484;-70
2022/10/05 08:06:54;;;;;;;444.20;413.23;;;10.30;99.90;;;;;;5035988;28;20045;-70
2022/10/05 08:09:29;;;;;;;398.27;367.13;;;10.50;99.90;;;;;;5015352;28;20045;-70
2022/10/05 08:12:13;;;;;;;347.98;320.73;;;10.50;99.90;;;;;;5050849;28;20065;-70
2022/10/05 08:14:59;;;;;;;307.58;285.00;;;10.70;99.90;;;;;;5034810;28;20037;-70
2022/10/05 08:17:31;;;;;;;287.30;266.13;;;10.80;99.90;;;;;;5035611;28;20037;-70
2022/10/05 08:20:20;;;;;;;242.77;225.43;;;11.10;99.90;;;;;;5036374;28;20100;-70
2022/10/05 08:22:53;;;;;;;225.07;209.85;;;11.30;99.90;;;;;;5035615;28;20537;-70
2022/10/05 08:25:25;;;;;;;224.68;209.40;;;11.50;99.90;;;;;;5035552;28;20065;-70
2022/10/05 08:28:07;;;;;;;231.57;215.43;;;11.60;99.90;;;;;;5036002;28;20118;-71
2022/10/05 08:30:50;;;;;;;237.95;220.73;;;11.80;99.90;;;;;;5036295;28;20100;-74
2022/10/05 08:33:19;;;;;;;238.05;221.82;;;12.00;99.90;;;;;;5033644;28;40216;-70
2022/10/05 08:35:54;;;;;;;255.38;240.82;;;12.10;99.90;;;;;;5035459;28;20112;-69
2022/10/05 08:38:30;;;;;;;204.93;192.68;;;12.40;99.90;;;;;;5031094;28;20034;-70
2022/10/05 08:41:23;;;;;;;224.20;210.57;;;12.50;99.90;;;;;;5039809;28;20125;-71
2022/10/05 08:44:33;;;;;;;233.18;219.43;;;12.80;99.90;;;;;;5053255;28;20041;-71
2022/10/05 08:47:15;;;;;;;214.88;202.13;;;13.00;99.90;;;;;;5033176;28;20046;-70
2022/10/05 08:50:11;;;;;;;196.32;185.10;;;13.20;99.90;;;;;;5035065;28;20488;-70
2022/10/05 08:52:54;;;;;;;169.15;159.48;;;13.30;99.90;;;;;;5045800;28;20029;-69
2022/10/05 08:55:50;;;;;;;117.78;110.68;;;13.50;99.90;;;;;;5034143;28;20030;-71
2022/10/05 08:58:37;;;;;;;74.90;70.03;;;13.80;99.90;;;;;;5051534;28;20034;-71
2022/10/05 09:01:19;;;;;;;60.92;56.97;;;14.00;99.90;;;;;;5054444;28;20168;-71
2022/10/05 09:04:04;;;;;;;58.67;54.97;;;14.20;99.90;;;;;;5053612;28;20044;-77
2022/10/05 09:06:49;;;;;;;48.83;45.63;;;14.30;99.90;;;;;;5044572;28;20068;-71
2022/10/05 09:09:33;;;;;;;57.15;53.70;;;14.30;99.90;;;;;;5035515;28;20034;-69
2022/10/05 09:12:28;;;;;;;93.25;87.80;;;14.50;99.90;;;;;;5035109;28;20070;-69
2022/10/05 09:15:23;;;;;;;119.25;112.53;;;14.60;99.90;;;;;;5034656;28;20038;-70
2022/10/05 09:18:26;;;;;;;127.20;120.32;;;14.80;99.90;;;;;;5027678;28;20069;-70
2022/10/05 09:21:12;;;;;;;129.90;122.75;;;14.90;99.90;;;;;;5034797;28;20045;-70
2022/10/05 09:23:43;;;;;;;117.82;111.63;;;15.00;99.90;;;;;;5035035;28;20471;-70
2022/10/05 09:26:39;;;;;;;112.90;107.10;;;15.20;99.90;;;;;;5034545;28;20100;-71
2022/10/05 09:29:42;;;;;;;109.30;103.55;;;15.30;99.90;;;;;;5034343;28;20113;-70
2022/10/05 09:32:23;;;;;;;82.88;78.57;;;15.40;99.90;;;;;;5034431;28;20482;-70
2022/10/05 09:35:12;;;;;;;72.10;68.28;;;15.50;99.90;;;;;;5034529;28;20160;-70
2022/10/05 09:38:10;;;;;;;65.22;61.72;;;15.60;99.90;;;;;;5028595;28;20050;-70
2022/10/05 09:40:57;;;;;;;83.32;78.63;;;15.80;99.90;;;;;;5034382;28;20026;-70
2022/10/05 09:43:58;;;;;;;99.40;94.20;;;15.90;99.90;;;;;;5034738;28;20030;-70
2022/10/05 09:46:48;;;;;;;89.25;84.75;;;16.00;99.90;;;;;;5034488;28;20086;-69
2022/10/05 09:49:42;;;;;;;70.75;67.10;;;16.00;99.90;;;;;;5034932;28;20044;-71
2022/10/05 09:52:07;;;;;;;41.53;39.17;;;16.10;99.90;;;;;;5033801;28;20100;-70
2022/10/05 09:55:26;;;;;;;43.63;41.17;;;16.20;99.90;;;;;;5034418;28;20491;-70
2022/10/05 09:58:23;;;;;;;23.15;21.85;;;16.30;99.90;;;;;;5033445;28;20029;-70
2022/10/05 10:01:19;;;;;;;22.08;20.77;;;16.40;99.90;;;;;;5046316;28;20129;-70
2022/10/05 10:03:59;;;;;;;17.15;16.15;;;16.40;99.90;;;;;;5052122;28;20029;-71
2022/10/05 10:06:51;;;;;;;17.23;16.23;;;16.60;99.90;;;;;;5052863;28;20036;-70
2022/10/05 10:09:38;;;;;;;15.15;14.15;;;16.80;99.90;;;;;;5042891;28;20053;-71
2022/10/05 10:12:23;;;;;;;15.93;14.82;;;16.90;99.90;;;;;;5034077;28;20034;-70
2022/10/05 10:15:13;;;;;;;55.92;53.03;;;17.00;99.90;;;;;;5033903;28;20116;-71
2022/10/05 10:18:10;;;;;;;53.83;51.03;;;17.10;99.90;;;;;;5032814;28;20058;-71
2022/10/05 10:21:14;;;;;;;40.40;38.38;;;17.20;99.90;;;;;;5032586;28;20117;-70
2022/10/05 10:23:59;;;;;;;33.10;31.30;;;17.40;99.90;;;;;;5027697;28;20069;-69
2022/10/05 10:27:15;;;;;;;35.15;33.17;;;17.40;99.90;;;;;;5043614;28;20354;-69
2022/10/05 10:29:46;;;;;;;36.25;33.45;;;17.60;99.90;;;;;;4996124;28;20096;-70
2022/10/05 10:32:33;;;;;;;21.90;20.60;;;17.80;99.90;;;;;;5025205;28;20134;-70
2022/10/05 10:35:21;;;;;;;21.95;20.65;;;17.80;99.90;;;;;;5026016;28;20626;-70
2022/10/05 10:38:23;;;;;;;19.55;18.50;;;18.00;99.90;;;;;;5028832;28;20045;-70
2022/10/05 10:40:58;;;;;;;16.30;15.25;;;18.00;99.90;;;;;;5029521;28;20512;-70
2022/10/05 10:43:39;;;;;;;17.20;16.10;;;18.10;99.90;;;;;;5028133;28;20038;-70
2022/10/05 10:46:38;;;;;;;15.40;14.55;;;18.30;99.90;;;;;;5027777;28;20047;-70
2022/10/05 10:49:41;;;;;;;15.95;14.98;;;18.30;99.90;;;;;;5045172;28;20033;-70
2022/10/05 10:52:43;;;;;;;15.00;14.20;;;18.60;99.90;;;;;;5045899;28;20037;-71
2022/10/05 10:55:28;;;;;;;15.25;14.35;;;18.80;99.90;;;;;;5034529;28;20036;-71
2022/10/05 10:58:27;;;;;;;16.13;15.32;;;19.00;99.90;;;;;;5031742;28;20038;-71
2022/10/05 11:01:10;;;;;;;17.50;16.60;;;19.20;99.90;;;;;;5027787;28;20030;-71
2022/10/05 11:03:51;;;;;;;17.65;16.55;;;19.40;99.90;;;;;;5028880;28;20037;-70
2022/10/05 11:06:25;;;;;;;15.25;14.45;;;19.60;99.90;;;;;;5024166;28;20042;-70
2022/10/05 11:09:13;;;;;;;17.40;16.50;;;19.80;99.90;;;;;;5033766;28;20034;-70
2022/10/05 11:11:49;;;;;;;16.65;15.82;;;20.20;99.90;;;;;;5032838;28;20526;-70
2022/10/05 11:14:50;;;;;;;17.75;16.83;;;20.20;99.90;;;;;;5029584;28;20117;-70
2022/10/05 11:17:23;;;;;;;15.02;14.23;;;20.40;99.90;;;;;;5031591;28;20116;-71
2022/10/05 11:20:01;;;;;;;12.52;11.82;;;20.60;99.90;;;;;;5032037;28;20060;-70
2022/10/05 11:22:53;;;;;;;11.43;10.85;;;20.60;99.90;;;;;;5031418;28;20092;-70
2022/10/05 11:25:47;;;;;;;10.70;10.20;;;20.80;99.90;;;;;;5030740;28;20033;-70
2022/10/05 11:28:13;;;;;;;74.60;34.78;;;21.10;99.90;;;;;;5038087;28;20037;-70
2022/10/05 11:31:09;;;;;;;10.75;10.15;;;21.10;99.90;;;;;;5043078;28;20060;-70
2022/10/05 11:34:05;;;;;;;10.90;10.20;;;21.10;99.90;;;;;;5038453;28;20499;-70
2022/10/05 11:36:49;;;;;;;10.15;9.55;;;21.30;99.90;;;;;;5034464;28;20038;-70
2022/10/05 11:40:02;;;;;;;10.70;10.00;;;21.40;99.90;;;;;;5037272;28;20034;-70
2022/10/05 11:42:56;;;;;;;10.27;9.77;;;21.60;99.90;;;;;;4981121;28;20230;-70
2022/10/05 11:45:44;;;;;;;10.60;9.88;;;21.40;99.90;;;;;;4970622;28;20073;-70
2022/10/05 11:48:19;;;;;;;10.32;9.60;;;21.50;99.90;;;;;;5021356;28;20056;-70
2022/10/05 11:51:07;;;;;;;10.00;9.50;;;21.50;99.90;;;;;;5024249;28;20089;-70
2022/10/05 11:53:52;;;;;;;9.85;9.30;;;21.60;99.90;;;;;;5052492;28;20045;-73
2022/10/05 11:56:45;;;;;;;10.52;9.82;;;21.90;99.90;;;;;;5044540;28;20038;-71
2022/10/05 11:59:39;;;;;;;12.00;11.40;;;22.10;99.90;;;;;;5039413;28;20609;-71
2022/10/05 12:02:24;;;;;;;12.20;11.50;;;22.10;99.90;;;;;;5044413;28;20065;-72
2022/10/05 12:05:21;;;;;;;11.20;10.60;;;22.30;99.90;;;;;;5047240;28;20037;-71
2022/10/05 12:07:55;;;;;;;12.45;11.75;;;22.50;99.90;;;;;;5028303;28;20080;-70
2022/10/05 12:10:24;;;;;;;11.90;11.20;;;22.50;99.90;;;;;;5027882;28;20085;-70
2022/10/05 12:13:24;;;;;;;11.73;11.13;;;22.60;99.90;;;;;;5038815;28;20034;-72
2022/10/05 12:16:15;;;;;;;11.57;10.98;;;22.60;99.90;;;;;;5031640;28;20380;-70
2022/10/05 12:18:56;;;;;;;10.55;10.02;;;22.60;99.90;;;;;;5002590;28;20050;-70
2022/10/05 12:21:35;;;;;;;11.90;11.30;;;22.60;99.90;;;;;;5036317;28;20069;-70
2022/10/05 12:24:47;;;;;;;13.30;12.60;;;22.80;99.90;;;;;;5051245;28;20496;-69
2022/10/05 12:27:21;;;;;;;13.63;13.00;;;23.00;99.90;;;;;;5032358;28;20519;-70
2022/10/05 12:29:55;;;;;;;15.70;14.93;;;23.10;99.90;;;;;;5043602;28;20061;-70
2022/10/05 12:32:32;;;;;;;16.38;15.57;;;23.10;99.90;;;;;;5044858;28;20079;-69
2022/10/05 12:35:10;;;;;;;16.75;15.90;;;23.00;99.90;;;;;;5039281;28;20105;-70
2022/10/05 12:37:52;;;;;;;15.63;14.82;;;23.00;99.90;;;;;;5051587;28;20065;-69
2022/10/05 12:40:45;;;;;;;17.50;16.65;;;23.10;99.90;;;;;;5044150;28;20033;-69
2022/10/05 12:43:43;;;;;;;26.05;24.77;;;23.40;99.90;;;;;;5037574;28;20034;-70
2022/10/05 12:46:41;;;;;;;23.08;21.98;;;23.50;99.90;;;;;;5042558;28;20176;-69
2022/10/05 12:49:45;;;;;;;26.15;24.70;;;23.50;99.90;;;;;;5018719;28;20085;-70
2022/10/05 12:52:32;;;;;;;26.00;24.70;;;23.50;99.90;;;;;;5047130;28;20030;-69
2022/10/05 12:55:09;;;;;;;27.15;25.85;;;23.50;99.90;;;;;;5034599;28;20096;-75
2022/10/05 12:57:47;;;;;;;28.92;27.52;;;23.50;99.90;;;;;;5029694;28;20037;-70
2022/10/05 13:00:17;;;;;;;30.17;28.77;;;23.60;99.90;;;;;;5042832;28;20064;-70
2022/10/05 13:02:46;;;;;;;31.42;29.92;;;23.70;99.90;;;;;;5040874;28;20484;-71
2022/10/05 13:05:49;;;;;;;19.98;18.98;;;23.70;99.90;;;;;;5051112;28;20033;-70
2022/10/05 13:09:09;;;;;;;31.83;30.23;;;23.80;99.90;;;;;;5046626;28;20949;-70
2022/10/05 13:11:46;;;;;;;25.13;23.92;;;23.90;99.90;;;;;;4974202;28;20057;-71
2022/10/05 13:14:49;;;;;;;26.40;25.00;;;24.10;99.90;;;;;;4971923;28;20035;-70
2022/10/05 13:17:29;;;;;;;20.95;19.95;;;24.10;99.90;;;;;;5015854;28;20053;-70
2022/10/05 13:20:05;;;;;;;20.10;19.00;;;24.10;99.90;;;;;;5028527;28;20507;-71
2022/10/05 13:22:47;;;;;;;19.08;18.08;;;23.90;99.90;;;;;;5035016;28;20055;-73
2022/10/05 13:25:12;;;;;;;22.40;21.27;;;23.90;99.90;;;;;;5034973;28;20480;-70
2022/10/05 13:27:58;;;;;;;24.02;22.60;;;23.90;99.90;;;;;;5032986;28;20041;-70
2022/10/05 13:30:23;;;;;;;17.50;16.60;;;23.80;99.90;;;;;;5013277;28;20805;-71
2022/10/05 13:33:36;;;;;;;17.63;16.73;;;23.90;99.90;;;;;;5034206;28;20042;-71
2022/10/05 13:36:08;;;;;;;69.63;66.05;;;23.60;99.90;;;;;;5003944;28;20512;-71
2022/10/05 13:38:53;;;;;;;63.58;60.45;;;23.60;99.90;;;;;;5041608;28;20557;-71
2022/10/05 13:41:27;;;;;;;53.78;51.08;;;23.60;99.90;;;;;;5070094;28;20613;-71
2022/10/05 13:44:12;;;;;;;54.83;52.17;;;23.60;99.90;;;;;;5047879;28;20042;-71